createdAt,value
2018-12-23T00:00:55.300Z,20.17
2018-12-23T00:03:23.963Z,27.47
2018-12-23T00:05:52.624Z,18.40
2018-12-23T00:08:21.265Z,22.43
2018-12-23T00:10:49.969Z,28.27
2018-12-23T00:13:18.565Z,17.13
2018-12-23T00:15:47.165Z,12.03
2018-12-23T00:18:15.763Z,13.90
2018-12-23T00:20:44.347Z,12.63
2018-12-23T00:23:12.919Z,16.63
2018-12-23T00:25:41.518Z,16.30
2018-12-23T00:28:10.140Z,19.93
2018-12-23T00:30:38.808Z,16.20
2018-12-23T00:33:07.428Z,15.13
2018-12-23T00:35:36.065Z,14.30
2018-12-23T00:38:04.734Z,18.27
2018-12-23T00:40:33.435Z,22.97
2018-12-23T00:43:02.208Z,18.40
2018-12-23T00:45:30.891Z,22.97
2018-12-23T00:47:59.531Z,24.30
2018-12-23T00:50:28.151Z,17.50
2018-12-23T00:52:56.765Z,22.23
2018-12-23T00:55:25.368Z,20.73
2018-12-23T00:57:54.019Z,23.07
2018-12-23T01:00:22.779Z,23.20
2018-12-23T01:02:51.384Z,27.33
2018-12-23T01:05:19.997Z,17.17
2018-12-23T01:07:48.776Z,23.67
2018-12-23T01:10:17.361Z,19.37
2018-12-23T01:12:45.959Z,21.00
2018-12-23T01:15:14.546Z,25.27
2018-12-23T01:17:43.163Z,23.77
2018-12-23T01:20:11.763Z,21.10
2018-12-23T01:22:40.365Z,22.37
2018-12-23T01:25:10.497Z,23.53
2018-12-23T01:27:39.113Z,22.20
2018-12-23T01:30:07.769Z,22.63
2018-12-23T01:32:36.397Z,18.13
2018-12-23T01:35:05.290Z,17.43
2018-12-23T01:37:33.882Z,14.57
2018-12-23T01:40:02.634Z,17.67
2018-12-23T01:42:31.221Z,18.00
2018-12-23T01:44:59.925Z,23.77
2018-12-23T01:47:28.516Z,17.40
2018-12-23T01:49:57.240Z,15.87
2018-12-23T01:52:25.828Z,15.57
2018-12-23T01:54:54.470Z,12.60
2018-12-23T01:57:23.073Z,18.17
2018-12-23T01:59:51.714Z,15.70
2018-12-23T02:02:20.309Z,19.60
2018-12-23T02:04:48.904Z,17.73
2018-12-23T02:07:17.535Z,22.13
2018-12-23T02:09:46.168Z,14.70
2018-12-23T02:12:14.797Z,13.13
2018-12-23T02:14:43.413Z,17.47
2018-12-23T02:17:12.117Z,14.50
2018-12-23T02:19:40.758Z,15.50
2018-12-23T02:22:09.416Z,20.47
2018-12-23T02:24:38.032Z,14.03
2018-12-23T02:27:06.775Z,12.20
2018-12-23T02:29:35.413Z,19.90
2018-12-23T02:32:04.208Z,18.67
2018-12-23T02:34:32.857Z,14.77
2018-12-23T02:37:01.472Z,16.97
2018-12-23T02:39:30.181Z,12.63
2018-12-23T02:41:58.802Z,15.30
2018-12-23T02:44:27.423Z,16.73
2018-12-23T02:46:55.983Z,17.90
2018-12-23T02:49:24.625Z,21.40
2018-12-23T02:51:53.270Z,29.00
2018-12-23T02:54:21.882Z,18.87
2018-12-23T02:56:50.512Z,16.93
2018-12-23T02:59:19.144Z,14.67
2018-12-23T03:01:47.810Z,21.23
2018-12-23T03:04:16.452Z,15.70
2018-12-23T03:06:45.042Z,18.90
2018-12-23T03:09:13.675Z,13.90
2018-12-23T03:11:42.318Z,12.60
2018-12-23T03:14:10.938Z,9.17
2018-12-23T03:16:39.661Z,13.70
2018-12-23T03:19:08.419Z,13.70
2018-12-23T03:21:37.838Z,12.93
2018-12-23T03:24:06.546Z,15.43
2018-12-23T03:26:35.134Z,12.83
2018-12-23T03:29:03.731Z,11.07
2018-12-23T03:31:32.367Z,13.07
2018-12-23T03:34:00.974Z,18.07
2018-12-23T03:36:29.582Z,16.40
2018-12-23T03:38:58.181Z,18.10
2018-12-23T03:41:26.817Z,23.80
2018-12-23T03:43:55.588Z,11.73
2018-12-23T03:46:24.172Z,18.33
2018-12-23T03:48:52.804Z,16.00
2018-12-23T03:51:21.504Z,21.30
2018-12-23T03:53:50.161Z,22.00
2018-12-23T03:56:18.770Z,19.77
2018-12-23T03:58:47.468Z,23.83
2018-12-23T04:01:16.097Z,19.30
2018-12-23T04:03:44.672Z,16.43
2018-12-23T04:06:13.293Z,18.03
2018-12-23T04:08:42.364Z,17.30
2018-12-23T04:11:10.941Z,25.83
2018-12-23T04:13:39.559Z,21.30
2018-12-23T04:16:08.164Z,15.43
2018-12-23T04:18:36.853Z,14.17
2018-12-23T04:21:05.424Z,17.90
2018-12-23T04:23:34.074Z,15.07
2018-12-23T04:26:02.771Z,22.43
2018-12-23T04:28:31.359Z,22.70
2018-12-23T04:30:59.955Z,25.00
2018-12-23T04:33:28.577Z,18.97
2018-12-23T04:35:57.204Z,23.97
2018-12-23T04:38:25.790Z,22.40
2018-12-23T04:40:54.372Z,35.00
2018-12-23T04:43:23.023Z,27.30
2018-12-23T04:45:52.049Z,27.47
2018-12-23T04:48:20.641Z,31.23
2018-12-23T04:50:49.255Z,35.53
2018-12-23T04:53:17.872Z,40.70
2018-12-23T04:55:46.462Z,35.60
2018-12-23T04:58:15.094Z,38.67
2018-12-23T05:00:43.733Z,43.07
2018-12-23T05:03:12.368Z,46.60
2018-12-23T05:05:41.003Z,48.83
2018-12-23T05:08:09.642Z,45.53
2018-12-23T05:10:38.238Z,46.00
2018-12-23T05:13:06.809Z,43.53
2018-12-23T05:15:35.429Z,48.30
2018-12-23T05:18:04.107Z,47.07
2018-12-23T05:20:32.723Z,46.40
2018-12-23T05:23:01.403Z,51.27
2018-12-23T05:25:30.029Z,43.33
2018-12-23T05:27:58.622Z,50.10
2018-12-23T05:30:27.235Z,53.70
2018-12-23T05:32:55.847Z,43.53
2018-12-23T05:35:24.468Z,46.70
2018-12-23T05:37:53.142Z,49.83
2018-12-23T05:40:21.779Z,50.37
2018-12-23T05:42:50.429Z,48.00
2018-12-23T05:45:19.047Z,46.97
2018-12-23T05:47:47.777Z,47.23
2018-12-23T05:50:16.370Z,50.80
2018-12-23T05:52:44.949Z,50.43
2018-12-23T05:55:13.227Z,43.60
2018-12-23T05:57:41.938Z,50.90
2018-12-23T06:00:10.554Z,53.73
2018-12-23T06:02:39.197Z,49.53
2018-12-23T06:05:07.814Z,49.50
2018-12-23T06:07:36.531Z,51.27
2018-12-23T06:10:06.056Z,49.13
2018-12-23T06:12:34.652Z,51.13
2018-12-23T06:15:03.271Z,41.50
2018-12-23T06:17:31.907Z,66.40
2018-12-23T06:20:00.545Z,47.90
2018-12-23T06:22:29.147Z,41.83
2018-12-23T06:24:57.835Z,45.23
2018-12-23T06:27:26.428Z,49.33
2018-12-23T06:29:55.160Z,45.80
2018-12-23T06:32:23.846Z,49.57
2018-12-23T06:34:52.429Z,46.63
2018-12-23T06:37:21.078Z,43.83
2018-12-23T06:39:49.710Z,53.43
2018-12-23T06:42:18.329Z,48.80
2018-12-23T06:44:46.981Z,51.37
2018-12-23T06:47:15.579Z,48.20
2018-12-23T06:49:44.187Z,49.20
2018-12-23T06:52:12.822Z,61.23
2018-12-23T06:54:41.411Z,50.00
2018-12-23T06:57:10.170Z,47.30
2018-12-23T06:59:38.820Z,56.80
2018-12-23T07:02:07.463Z,51.90
2018-12-23T07:04:36.075Z,50.87
2018-12-23T07:07:04.647Z,45.03
2018-12-23T07:09:33.380Z,49.43
2018-12-23T07:12:01.997Z,63.10
2018-12-23T07:14:30.603Z,53.40
2018-12-23T07:16:59.235Z,60.17
2018-12-23T07:19:27.903Z,51.53
2018-12-23T07:21:56.509Z,57.30
2018-12-23T07:24:25.335Z,58.57
2018-12-23T07:26:53.966Z,60.13
2018-12-23T07:29:22.597Z,60.53
2018-12-23T07:31:51.243Z,57.53
2018-12-23T07:34:19.950Z,56.93
2018-12-23T07:36:49.755Z,58.83
2018-12-23T07:39:18.789Z,55.13
2018-12-23T07:41:47.394Z,60.77
2018-12-23T07:44:16.001Z,67.57
2018-12-23T07:46:44.587Z,65.67
2018-12-23T07:49:13.251Z,61.30
2018-12-23T07:51:41.871Z,52.50
2018-12-23T07:54:10.509Z,73.27
2018-12-23T07:56:39.102Z,60.90
2018-12-23T07:59:07.758Z,63.70
2018-12-23T08:01:36.386Z,66.73
2018-12-23T08:04:05.046Z,66.20
2018-12-23T08:06:33.708Z,73.03
2018-12-23T08:09:02.283Z,62.13
2018-12-23T08:11:30.869Z,73.40
2018-12-23T08:13:59.534Z,73.07
2018-12-23T08:16:28.154Z,64.00
2018-12-23T08:18:56.791Z,64.37
2018-12-23T08:21:25.422Z,62.13
2018-12-23T08:23:54.069Z,66.33
2018-12-23T08:26:22.712Z,63.77
2018-12-23T08:28:51.311Z,65.80
2018-12-23T08:31:19.989Z,64.10
2018-12-23T08:33:48.645Z,63.97
2018-12-23T08:36:17.437Z,61.40
2018-12-23T08:38:46.097Z,60.40
2018-12-23T08:41:14.732Z,69.37
2018-12-23T08:43:43.401Z,59.93
2018-12-23T08:46:12.008Z,66.70
2018-12-23T08:48:40.632Z,67.53
2018-12-23T08:51:09.263Z,68.03
2018-12-23T08:53:37.864Z,75.53
2018-12-23T08:56:06.498Z,77.00
2018-12-23T08:58:35.273Z,81.70
2018-12-23T09:01:03.856Z,66.00
2018-12-23T09:03:32.445Z,75.20
2018-12-23T09:06:01.037Z,72.60
2018-12-23T09:08:29.629Z,77.07
2018-12-23T09:10:58.247Z,65.73
2018-12-23T09:13:26.840Z,73.33
2018-12-23T09:15:55.497Z,70.20
2018-12-23T09:18:24.133Z,71.27
2018-12-23T09:20:53.025Z,65.47
2018-12-23T09:23:21.634Z,70.03
2018-12-23T09:25:50.243Z,65.23
2018-12-23T09:28:18.919Z,68.87
2018-12-23T09:30:47.574Z,69.27
2018-12-23T09:33:16.272Z,74.30
2018-12-23T09:35:44.894Z,71.17
2018-12-23T09:38:13.474Z,72.90
2018-12-23T09:40:42.093Z,69.80
2018-12-23T09:43:10.700Z,70.10
2018-12-23T09:45:39.404Z,68.20
2018-12-23T09:48:08.036Z,66.00
2018-12-23T09:50:37.586Z,63.97
2018-12-23T09:53:06.200Z,63.67
2018-12-23T09:55:34.847Z,65.57
2018-12-23T09:58:03.504Z,63.77
2018-12-23T10:00:32.295Z,77.57
2018-12-23T10:03:02.339Z,64.67
2018-12-23T10:05:31.048Z,76.87
2018-12-23T10:07:59.752Z,63.83
2018-12-23T10:10:28.781Z,75.47
2018-12-23T10:12:57.505Z,61.70
2018-12-23T10:15:26.217Z,65.67
2018-12-23T10:17:54.956Z,76.80
2018-12-23T10:20:23.913Z,64.50
2018-12-23T10:22:52.557Z,56.23
2018-12-23T10:25:21.189Z,73.17
2018-12-23T10:27:49.778Z,62.80
2018-12-23T10:30:18.636Z,74.60
2018-12-23T10:32:47.322Z,66.13
2018-12-23T10:35:15.960Z,63.13
2018-12-23T10:37:44.598Z,71.97
2018-12-23T10:40:13.208Z,58.33
2018-12-23T10:42:41.853Z,74.77
2018-12-23T10:45:10.531Z,64.00
2018-12-23T10:47:39.337Z,67.47
2018-12-23T10:50:08.983Z,69.73
2018-12-23T10:52:37.709Z,86.43
2018-12-23T10:55:06.522Z,70.83
2018-12-23T10:57:35.187Z,75.13
2018-12-23T11:00:04.517Z,74.57
2018-12-23T11:02:33.182Z,79.00
2018-12-23T11:05:01.797Z,61.43
2018-12-23T11:07:30.366Z,78.40
2018-12-23T11:10:02.095Z,72.50
2018-12-23T11:12:29.618Z,67.50
2018-12-23T11:14:58.330Z,62.53
2018-12-23T11:17:27.093Z,60.70
2018-12-23T11:19:55.705Z,63.83
2018-12-23T11:22:24.336Z,60.40
2018-12-23T11:24:54.065Z,61.60
2018-12-23T11:27:22.674Z,60.37
2018-12-23T11:29:51.317Z,55.10
2018-12-23T11:32:20.121Z,56.93
2018-12-23T11:34:48.717Z,57.97
2018-12-23T11:37:17.346Z,59.07
2018-12-23T11:39:45.966Z,65.23
2018-12-23T11:42:14.579Z,54.83
2018-12-23T11:44:43.258Z,51.77
2018-12-23T11:47:11.953Z,53.30
2018-12-23T11:49:40.610Z,50.17
2018-12-23T11:52:09.240Z,48.00
2018-12-23T11:54:37.879Z,45.23
2018-12-23T11:57:06.477Z,49.40
2018-12-23T11:59:35.149Z,46.53
2018-12-23T12:02:03.819Z,46.30
2018-12-23T12:04:32.411Z,47.83
2018-12-23T12:07:01.083Z,226.80
2018-12-23T12:09:29.725Z,46.67
2018-12-23T12:11:58.315Z,60.27
2018-12-23T12:14:26.945Z,47.33
2018-12-23T12:16:55.563Z,41.90
2018-12-23T12:19:24.196Z,39.70
2018-12-23T12:21:52.799Z,40.30
2018-12-23T12:24:21.442Z,39.50
2018-12-23T12:26:50.042Z,37.07
2018-12-23T12:29:18.805Z,40.10
2018-12-23T12:31:47.449Z,41.47
2018-12-23T12:34:16.113Z,44.90
2018-12-23T12:36:44.726Z,45.10
2018-12-23T12:39:13.360Z,53.13
2018-12-23T12:41:42.052Z,49.40
2018-12-23T12:44:10.660Z,40.13
2018-12-23T12:46:39.326Z,44.23
2018-12-23T12:49:07.934Z,44.80
2018-12-23T12:51:36.578Z,49.13
2018-12-23T12:54:05.248Z,48.53
2018-12-23T12:56:33.879Z,55.57
2018-12-23T12:59:02.431Z,55.07
2018-12-23T13:01:31.028Z,60.03
2018-12-23T13:03:59.657Z,52.57
2018-12-23T13:06:28.305Z,47.13
2018-12-23T13:09:00.634Z,48.57
2018-12-23T13:11:27.563Z,50.73
2018-12-23T13:13:56.341Z,53.73
2018-12-23T13:16:25.006Z,56.07
2018-12-23T13:18:53.578Z,46.80
2018-12-23T13:21:22.670Z,61.60
2018-12-23T13:23:51.302Z,45.27
2018-12-23T13:26:19.922Z,37.10
2018-12-23T13:28:48.502Z,42.07
2018-12-23T13:31:17.205Z,40.40
2018-12-23T13:33:45.823Z,35.43
2018-12-23T13:36:14.389Z,32.83
2018-12-23T13:38:42.974Z,33.43
2018-12-23T13:41:35.906Z,40.43
2018-12-23T13:47:21.462Z,42.57
2018-12-23T13:50:11.914Z,42.80
2018-12-23T13:52:51.471Z,35.37
2018-12-23T13:56:42.727Z,37.50
2018-12-23T13:59:32.974Z,31.60
2018-12-23T14:02:13.180Z,38.20
2018-12-23T14:05:50.424Z,39.40
2018-12-23T14:09:31.923Z,31.53
2018-12-23T14:12:00.568Z,30.83
2018-12-23T14:14:29.146Z,27.00
2018-12-23T14:16:57.802Z,29.90
2018-12-23T14:19:26.558Z,31.00
2018-12-23T14:21:55.176Z,30.47
2018-12-23T14:24:23.771Z,32.40
2018-12-23T14:26:52.401Z,36.37
2018-12-23T14:29:20.994Z,27.13
2018-12-23T14:31:49.694Z,21.50
2018-12-23T14:34:18.346Z,28.80
2018-12-23T14:36:47.146Z,31.77
2018-12-23T14:39:15.886Z,31.67
2018-12-23T14:41:44.483Z,30.87
2018-12-23T14:44:13.172Z,30.50
2018-12-23T14:46:41.796Z,21.00
2018-12-23T14:49:10.383Z,18.40
2018-12-23T14:51:39.070Z,22.60
2018-12-23T14:54:07.650Z,25.50
2018-12-23T14:56:36.246Z,23.93
2018-12-23T14:59:04.853Z,23.37
2018-12-23T15:01:33.494Z,21.03
2018-12-23T15:04:02.079Z,18.60
2018-12-23T15:06:30.744Z,15.33
2018-12-23T15:08:59.341Z,12.20
2018-12-23T15:11:27.979Z,16.23
2018-12-23T15:13:56.614Z,12.80
2018-12-23T15:16:25.264Z,13.20
2018-12-23T15:18:54.943Z,10.20
2018-12-23T15:21:23.605Z,12.30
2018-12-23T15:23:52.251Z,15.50
2018-12-23T15:26:20.845Z,16.33
2018-12-23T15:28:49.458Z,13.20
2018-12-23T15:31:18.096Z,19.03
2018-12-23T15:33:46.848Z,15.80
2018-12-23T15:36:16.991Z,20.97
2018-12-23T15:38:45.581Z,15.80
2018-12-23T15:41:14.214Z,16.33
2018-12-23T15:43:42.849Z,18.60
2018-12-23T15:46:11.485Z,14.43
2018-12-23T15:48:40.078Z,14.33
2018-12-23T15:51:08.701Z,12.80
2018-12-23T15:53:37.300Z,14.10
2018-12-23T15:56:07.881Z,18.50
2018-12-23T15:58:36.584Z,25.20
2018-12-23T16:01:05.195Z,32.50
2018-12-23T16:03:33.804Z,24.60
2018-12-23T16:06:02.404Z,23.70
2018-12-23T16:08:31.033Z,24.37
2018-12-23T16:10:59.672Z,25.47
2018-12-23T16:13:28.330Z,22.03
2018-12-23T16:15:56.922Z,25.00
2018-12-23T16:18:25.590Z,23.37
2018-12-23T16:20:54.230Z,19.47
2018-12-23T16:23:22.839Z,24.93
2018-12-23T16:25:51.455Z,20.27
2018-12-23T16:28:20.084Z,19.53
2018-12-23T16:30:48.699Z,17.67
2018-12-23T16:33:17.276Z,22.93
2018-12-23T16:36:32.059Z,19.73
2018-12-23T16:39:01.531Z,21.60
2018-12-23T16:41:31.017Z,20.50
2018-12-23T16:44:00.607Z,20.37
2018-12-23T16:46:30.117Z,22.77
2018-12-23T16:49:00.004Z,21.70
2018-12-23T16:51:29.989Z,24.10
2018-12-23T16:53:59.505Z,22.00
2018-12-23T16:56:29.010Z,23.27
2018-12-23T16:58:58.500Z,18.60
2018-12-23T17:01:28.050Z,19.13
2018-12-23T17:03:57.543Z,21.50
2018-12-23T17:06:27.542Z,20.00
2018-12-23T17:08:57.030Z,20.90
2018-12-23T17:11:26.569Z,19.03
2018-12-23T17:13:56.081Z,21.93
2018-12-23T17:16:25.613Z,23.37
2018-12-23T17:18:55.124Z,21.53
2018-12-23T17:21:24.996Z,25.70
2018-12-23T17:23:54.597Z,23.37
2018-12-23T17:26:24.502Z,22.30
2018-12-23T17:28:54.866Z,25.50
2018-12-23T17:31:25.143Z,24.63
2018-12-23T17:33:55.098Z,29.77
2018-12-23T17:36:24.625Z,28.27
2018-12-23T17:38:54.744Z,28.67
2018-12-23T17:41:24.301Z,32.50
2018-12-23T17:43:54.188Z,31.07
2018-12-23T17:46:23.768Z,37.03
2018-12-23T17:48:53.376Z,31.80
2018-12-23T17:51:22.884Z,26.63
2018-12-23T17:53:52.422Z,42.33
2018-12-23T17:56:21.936Z,35.87
2018-12-23T17:58:51.506Z,28.50
2018-12-23T18:01:21.004Z,33.20
2018-12-23T18:03:51.281Z,29.27
2018-12-23T18:06:20.797Z,30.57
2018-12-23T18:08:50.352Z,31.67
2018-12-23T18:11:19.890Z,26.00
2018-12-23T18:13:49.821Z,27.30
2018-12-23T18:16:19.358Z,25.53
2018-12-23T18:18:48.952Z,28.33
2018-12-23T18:21:18.547Z,28.30
2018-12-23T18:23:48.718Z,27.97
2018-12-23T18:26:18.227Z,24.47
2018-12-23T18:28:48.116Z,24.13
2018-12-23T18:31:17.609Z,24.33
2018-12-23T18:33:47.148Z,23.90
2018-12-23T18:36:16.705Z,27.87
2018-12-23T18:38:46.242Z,29.57
2018-12-23T18:41:15.768Z,28.23
2018-12-23T18:43:45.284Z,23.67
2018-12-23T18:46:14.827Z,24.23
2018-12-23T18:48:44.638Z,26.17
2018-12-23T18:51:14.831Z,26.50
2018-12-23T18:53:44.340Z,25.80
2018-12-23T18:56:13.917Z,24.60
2018-12-23T18:58:43.440Z,24.47
2018-12-23T19:01:13.088Z,29.90
2018-12-23T19:03:42.666Z,32.80
2018-12-23T19:06:12.987Z,22.63
2018-12-23T19:08:59.562Z,24.83
2018-12-23T19:11:58.505Z,23.60
2018-12-23T19:15:10.978Z,27.60
2018-12-23T19:18:16.236Z,27.03
2018-12-23T19:21:25.668Z,27.33
2018-12-23T19:24:44.244Z,29.37
2018-12-23T19:27:32.709Z,23.90
2018-12-23T19:30:49.481Z,26.50
2018-12-23T19:33:52.998Z,22.50
2018-12-23T19:37:03.608Z,25.30
2018-12-23T19:40:13.178Z,24.60
2018-12-23T19:43:16.501Z,30.00
2018-12-23T19:46:48.609Z,33.70
2018-12-23T19:50:06.034Z,34.93
2018-12-23T19:53:19.802Z,32.97
2018-12-23T19:56:26.698Z,43.77
2018-12-23T19:59:42.541Z,28.83
2018-12-23T20:02:37.588Z,30.30
2018-12-23T20:05:43.939Z,29.07
2018-12-23T20:08:27.513Z,26.90
2018-12-23T20:11:25.799Z,21.30
2018-12-23T20:14:33.699Z,20.83
2018-12-23T20:17:53.117Z,26.17
2018-12-23T20:20:59.544Z,19.83
2018-12-23T20:24:01.508Z,18.87
2018-12-23T20:27:06.756Z,16.50
2018-12-23T20:30:26.175Z,17.73
2018-12-23T20:33:45.627Z,19.83
2018-12-23T20:37:05.102Z,16.77
2018-12-23T20:40:12.957Z,14.00
2018-12-23T20:43:06.536Z,15.53
2018-12-23T20:46:16.271Z,19.60
2018-12-23T20:49:22.513Z,18.90
2018-12-23T20:52:22.603Z,14.30
2018-12-23T20:55:41.590Z,13.07
2018-12-23T20:58:49.517Z,11.20
2018-12-23T21:01:49.434Z,11.80
2018-12-23T21:05:09.130Z,12.17
2018-12-23T21:08:03.698Z,10.57
2018-12-23T21:11:28.097Z,13.63
2018-12-23T21:14:34.144Z,12.07
2018-12-23T21:17:27.504Z,10.57
2018-12-23T21:20:49.177Z,11.03
2018-12-23T21:24:03.481Z,13.27
2018-12-23T21:27:14.130Z,9.77
2018-12-23T21:30:22.715Z,12.17
2018-12-23T21:33:41.372Z,13.60
2018-12-23T21:36:41.165Z,13.40
2018-12-23T21:39:39.194Z,14.00
2018-12-23T21:42:31.359Z,8.37
2018-12-23T21:45:39.957Z,9.53
2018-12-23T21:48:34.664Z,10.33
2018-12-23T21:51:55.619Z,9.27
2018-12-23T21:55:07.279Z,10.17
2018-12-23T21:58:24.038Z,8.40
2018-12-23T22:01:46.904Z,11.80
2018-12-23T22:05:03.494Z,7.63
2018-12-23T22:08:32.070Z,8.53
2018-12-23T22:11:33.136Z,10.40
2018-12-23T22:13:59.568Z,10.10
2018-12-23T22:16:29.063Z,7.20
2018-12-23T22:18:58.616Z,9.80
2018-12-23T22:21:28.170Z,9.30
2018-12-23T22:23:57.837Z,10.40
2018-12-23T22:26:27.590Z,9.90
2018-12-23T22:28:57.293Z,9.53
2018-12-23T22:31:27.262Z,10.03
2018-12-23T22:33:56.920Z,12.57
2018-12-23T22:36:26.835Z,13.23
2018-12-23T22:38:56.562Z,12.80
2018-12-23T22:41:29.926Z,11.90
2018-12-23T22:44:00.026Z,12.50
2018-12-23T22:46:29.592Z,10.10
2018-12-23T22:48:59.211Z,11.93
2018-12-23T22:51:28.779Z,13.53
2018-12-23T22:53:58.290Z,10.00
2018-12-23T22:56:27.776Z,11.73
2018-12-23T22:58:57.333Z,12.10
2018-12-23T23:01:27.013Z,10.90
2018-12-23T23:03:56.594Z,12.07
2018-12-23T23:06:26.135Z,10.70
2018-12-23T23:08:55.817Z,12.43
2018-12-23T23:11:27.425Z,13.37
2018-12-23T23:13:56.525Z,10.60
2018-12-23T23:16:26.081Z,11.00
2018-12-23T23:18:55.621Z,12.30
2018-12-23T23:21:25.114Z,11.53
2018-12-23T23:23:54.632Z,14.07
2018-12-23T23:26:24.157Z,11.37
2018-12-23T23:28:53.658Z,10.90
2018-12-23T23:31:23.167Z,11.47
2018-12-23T23:33:52.671Z,11.07
2018-12-23T23:36:22.227Z,13.20
2018-12-23T23:38:51.741Z,12.70
2018-12-23T23:41:21.269Z,12.20
2018-12-23T23:43:51.261Z,14.93
2018-12-23T23:46:20.825Z,15.63
2018-12-23T23:48:50.348Z,17.37
2018-12-23T23:51:20.319Z,15.37
2018-12-23T23:53:49.836Z,16.00
2018-12-23T23:56:19.344Z,13.50
2018-12-23T23:58:48.924Z,19.37
